Bookmark and Share
Track history (hours):
 

Currituck

Last reported at 2014-Apr-23 00:30 UTC. Time now 2014-Apr-24 02:08 UTC.
Position N 35°12' W 075°44'.

Length 45 m; draft 3 m.

Type: Dredging. MMSI: 369970446.

NotesDate/timePositionNaut miles runAvg speedWind from/ knotsBaromVisibWave heightAir tempDewpointWater temp
2014-Apr-23 00:30N 35°12' W 075°44'2 0.1
2014-Apr-22 12:32N 35°11' W 075°46'2 1.5
2014-Apr-22 11:24N 35°12' W 075°44'1 0.8
2014-Apr-22 10:30N 35°13' W 075°43'  
2014-Apr-18 16:17N 39°32' W 074°08'6 7.7
2014-Apr-18 15:32N 39°37' W 074°05'8 7.7
2014-Apr-18 14:33N 39°44' W 074°01'8 7.6
2014-Apr-18 13:31N 39°51' W 073°59'  
2014-Apr-15 03:34N 40°38' W 074°03'1010.0
2014-Apr-15 02:31N 40°47' W 073°56'15 7.6
2014-Apr-15 00:33N 40°55' W 073°39'7 6.9
2014-Apr-14 23:33N 40°59' W 073°32'3 2.8
2014-Apr-14 22:33N 41°02' W 073°33'2 2.2
2014-Apr-14 21:34N 41°00' W 073°31'7 6.8
2014-Apr-14 20:33N 41°01' W 073°22'6 6.5
2014-Apr-14 19:34N 41°04' W 073°14'7 6.9
2014-Apr-14 18:34N 41°06' W 073°05'7 6.6
2014-Apr-14 17:33N 41°07' W 072°57'6 6.4
2014-Apr-14 16:34N 41°08' W 072°49'7 6.6
2014-Apr-14 15:32N 41°10' W 072°40'6 6.6
2014-Apr-14 14:34N 41°11' W 072°31'8 7.7
2014-Apr-14 13:34N 41°13' W 072°21'14 7.1
2014-Apr-14 11:34N 41°20' W 072°05'2 1.6
2014-Apr-14 10:34N 41°21' W 072°05'6 6.4
2014-Apr-14 09:34N 41°15' W 072°04'7 6.9
2014-Apr-14 08:34N 41°15' W 071°54'7 7.4
2014-Apr-14 07:33N 41°16' W 071°45'7 7.1
2014-Apr-14 06:33N 41°17' W 071°35'7 6.9
2014-Apr-14 05:33N 41°18' W 071°26'  

Dump ship's entire track history

sailing weather and tide predictions

Currituck — AEFR — position and weather